createdAt,value
2018-05-26T00:00:28.140Z,16.26
2018-05-26T00:01:28.063Z,16.28
2018-05-26T00:02:27.982Z,16.23
2018-05-26T00:03:27.904Z,16.28
2018-05-26T00:04:27.829Z,16.24
2018-05-26T00:05:27.758Z,16.26
2018-05-26T00:06:27.679Z,16.26
2018-05-26T00:07:27.618Z,16.24
2018-05-26T00:08:27.534Z,16.16
2018-05-26T00:09:27.455Z,16.26
2018-05-26T00:10:27.381Z,16.17
2018-05-26T00:11:27.306Z,16.16
2018-05-26T00:12:27.227Z,16.17
2018-05-26T00:13:27.151Z,16.05
2018-05-26T00:14:27.082Z,16.09
2018-05-26T00:15:27.022Z,16.10
2018-05-26T00:16:26.925Z,16.05
2018-05-26T00:17:26.851Z,16.09
2018-05-26T00:18:26.775Z,16.15
2018-05-26T00:19:26.700Z,16.12
2018-05-26T00:20:26.640Z,16.05
2018-05-26T00:21:26.550Z,16.12
2018-05-26T00:22:26.473Z,16.12
2018-05-26T00:23:26.402Z,16.10
2018-05-26T00:24:26.322Z,16.08
2018-05-26T00:25:26.266Z,16.09
2018-05-26T00:26:26.177Z,16.15
2018-05-26T00:27:26.097Z,16.01
2018-05-26T00:28:26.020Z,16.08
2018-05-26T00:29:25.948Z,16.02
2018-05-26T00:30:25.870Z,16.01
2018-05-26T00:31:25.796Z,16.01
2018-05-26T00:32:25.719Z,15.98
2018-05-26T00:33:25.643Z,16.01
2018-05-26T00:34:25.593Z,15.97
2018-05-26T00:35:25.510Z,16.00
2018-05-26T00:36:25.416Z,16.01
2018-05-26T00:37:25.342Z,15.97
2018-05-26T00:38:25.266Z,15.98
2018-05-26T00:39:25.235Z,15.97
2018-05-26T00:40:25.129Z,15.91
2018-05-26T00:41:25.041Z,15.92
2018-05-26T00:42:24.965Z,16.00
2018-05-26T00:43:24.889Z,15.84
2018-05-26T00:44:24.816Z,15.88
2018-05-26T00:45:24.738Z,15.91
2018-05-26T00:46:24.661Z,15.98
2018-05-26T00:47:24.586Z,15.98
2018-05-26T00:48:24.511Z,15.94
2018-05-26T00:49:24.438Z,15.97
2018-05-26T00:50:24.384Z,15.91
2018-05-26T00:51:24.284Z,15.88
2018-05-26T00:52:24.208Z,15.94
2018-05-26T00:53:24.135Z,15.95
2018-05-26T00:54:24.057Z,15.97
2018-05-26T00:55:24.098Z,15.86
2018-05-26T00:56:23.905Z,15.91
2018-05-26T00:57:23.835Z,15.94
2018-05-26T00:58:23.755Z,15.91
2018-05-26T00:59:23.680Z,15.95
2018-05-26T01:00:23.607Z,15.91
2018-05-26T01:01:23.532Z,15.91
2018-05-26T01:02:23.453Z,15.88
2018-05-26T01:03:23.377Z,15.91
2018-05-26T01:04:23.300Z,15.83
2018-05-26T01:05:23.225Z,15.88
2018-05-26T01:06:23.149Z,15.83
2018-05-26T01:07:23.075Z,15.84
2018-05-26T01:08:22.998Z,15.84
2018-05-26T01:09:22.922Z,15.79
2018-05-26T01:10:22.853Z,15.88
2018-05-26T01:11:22.774Z,15.79
2018-05-26T01:12:22.711Z,15.80
2018-05-26T01:13:22.623Z,15.75
2018-05-26T01:14:22.552Z,15.75
2018-05-26T01:15:22.478Z,15.75
2018-05-26T01:16:22.399Z,15.77
2018-05-26T01:17:22.321Z,15.75
2018-05-26T01:18:22.247Z,15.76
2018-05-26T01:19:22.171Z,15.68
2018-05-26T01:20:22.109Z,15.72
2018-05-26T01:21:22.021Z,15.75
2018-05-26T01:22:21.941Z,15.72
2018-05-26T01:23:21.865Z,15.70
2018-05-26T01:24:21.788Z,15.73
2018-05-26T01:25:21.726Z,15.72
2018-05-26T01:26:21.639Z,15.77
2018-05-26T01:27:21.561Z,15.68
2018-05-26T01:28:21.493Z,15.62
2018-05-26T01:29:21.410Z,15.64
2018-05-26T01:30:21.337Z,15.68
2018-05-26T01:31:21.259Z,15.67
2018-05-26T01:32:21.184Z,15.62
2018-05-26T01:33:21.123Z,15.67
2018-05-26T01:34:21.032Z,15.59
2018-05-26T01:35:20.957Z,15.59
2018-05-26T01:36:20.882Z,15.62
2018-05-26T01:37:20.806Z,15.59
2018-05-26T01:38:20.729Z,15.49
2018-05-26T01:39:20.653Z,15.54
2018-05-26T01:40:20.576Z,15.58
2018-05-26T01:41:20.504Z,15.54
2018-05-26T01:42:20.427Z,15.51
2018-05-26T01:43:20.351Z,15.54
2018-05-26T01:44:20.275Z,15.52
2018-05-26T01:45:20.199Z,15.49
2018-05-26T01:46:20.124Z,15.54
2018-05-26T01:47:20.048Z,15.54
2018-05-26T01:48:19.974Z,15.55
2018-05-26T01:49:19.894Z,15.51
2018-05-26T01:50:19.823Z,15.47
2018-05-26T01:51:19.745Z,15.52
2018-05-26T01:52:19.668Z,15.54
2018-05-26T01:53:19.595Z,15.49
2018-05-26T01:54:19.519Z,15.46
2018-05-26T01:55:19.440Z,15.46
2018-05-26T01:56:19.375Z,15.46
2018-05-26T01:57:19.290Z,15.47
2018-05-26T01:58:19.229Z,15.49
2018-05-26T01:59:19.137Z,15.47
2018-05-26T02:00:19.064Z,15.52
2018-05-26T02:01:18.997Z,15.51
2018-05-26T02:02:18.914Z,15.52
2018-05-26T02:03:18.837Z,15.39
2018-05-26T02:04:18.759Z,15.44
2018-05-26T02:05:18.688Z,15.46
2018-05-26T02:06:18.643Z,15.44
2018-05-26T02:07:18.531Z,15.49
2018-05-26T02:08:18.458Z,15.33
2018-05-26T02:09:18.389Z,15.33
2018-05-26T02:10:18.302Z,15.35
2018-05-26T02:11:18.226Z,15.39
2018-05-26T02:12:18.152Z,15.27
2018-05-26T02:13:18.074Z,15.28
2018-05-26T02:14:18.001Z,15.29
2018-05-26T02:15:17.925Z,15.27
2018-05-26T02:16:17.851Z,15.18
2018-05-26T02:17:17.770Z,15.27
2018-05-26T02:18:17.697Z,15.17
2018-05-26T02:19:17.619Z,15.21
2018-05-26T02:20:17.543Z,15.21
2018-05-26T02:21:17.470Z,15.19
2018-05-26T02:22:17.391Z,15.14
2018-05-26T02:23:17.313Z,15.28
2018-05-26T02:24:17.258Z,15.22
2018-05-26T02:25:17.163Z,15.17
2018-05-26T02:26:17.095Z,15.15
2018-05-26T02:27:17.013Z,15.24
2018-05-26T02:28:16.935Z,15.09
2018-05-26T02:29:16.877Z,15.06
2018-05-26T02:30:16.787Z,15.19
2018-05-26T02:31:16.708Z,15.09
2018-05-26T02:32:16.631Z,14.99
2018-05-26T02:33:16.558Z,14.92
2018-05-26T02:34:16.478Z,14.88
2018-05-26T02:35:16.406Z,14.88
2018-05-26T02:36:16.329Z,14.78
2018-05-26T02:37:16.249Z,14.73
2018-05-26T02:38:16.175Z,14.79
2018-05-26T02:39:16.099Z,14.77
2018-05-26T02:40:16.037Z,14.79
2018-05-26T02:41:15.949Z,14.78
2018-05-26T02:42:15.870Z,14.81
2018-05-26T02:43:15.793Z,14.79
2018-05-26T02:44:15.718Z,14.86
2018-05-26T02:45:15.661Z,14.82
2018-05-26T02:46:15.564Z,14.85
2018-05-26T02:47:15.488Z,14.85
2018-05-26T02:48:15.411Z,14.79
2018-05-26T02:49:15.337Z,14.78
2018-05-26T02:50:15.259Z,14.79
2018-05-26T02:51:15.189Z,14.81
2018-05-26T02:52:15.125Z,14.73
2018-05-26T02:53:15.030Z,14.81
2018-05-26T02:54:14.954Z,14.81
2018-05-26T02:55:14.877Z,14.78
2018-05-26T02:56:14.802Z,14.78
2018-05-26T02:57:14.729Z,14.79
2018-05-26T02:58:14.648Z,14.79
2018-05-26T02:59:14.570Z,14.78
2018-05-26T03:00:14.502Z,14.81
2018-05-26T03:01:14.418Z,14.81
2018-05-26T03:02:14.343Z,14.78
2018-05-26T03:03:14.268Z,14.81
2018-05-26T03:04:14.188Z,14.77
2018-05-26T03:05:14.113Z,14.81
2018-05-26T03:06:14.036Z,14.79
2018-05-26T03:07:13.959Z,14.89
2018-05-26T03:08:13.899Z,14.78
2018-05-26T03:09:13.809Z,14.78
2018-05-26T03:10:13.731Z,14.81
2018-05-26T03:11:13.653Z,14.86
2018-05-26T03:12:13.578Z,14.86
2018-05-26T03:13:13.549Z,14.79
2018-05-26T03:14:13.424Z,14.85
2018-05-26T03:15:13.349Z,14.82
2018-05-26T03:16:13.273Z,14.82
2018-05-26T03:17:13.196Z,14.86
2018-05-26T03:18:13.138Z,14.89
2018-05-26T03:19:13.044Z,14.82
2018-05-26T03:20:12.973Z,14.79
2018-05-26T03:21:12.891Z,14.82
2018-05-26T03:22:12.815Z,14.82
2018-05-26T03:23:12.739Z,14.79
2018-05-26T03:24:12.671Z,14.81
2018-05-26T03:25:12.584Z,14.86
2018-05-26T03:26:12.508Z,14.85
2018-05-26T03:27:12.432Z,14.84
2018-05-26T03:28:12.357Z,14.81
2018-05-26T03:29:12.282Z,14.79
2018-05-26T03:30:12.206Z,14.78
2018-05-26T03:31:12.127Z,14.86
2018-05-26T03:32:12.049Z,14.86
2018-05-26T03:33:11.974Z,14.81
2018-05-26T03:34:11.899Z,14.88
2018-05-26T03:35:11.825Z,14.86
2018-05-26T03:36:11.757Z,14.92
2018-05-26T03:37:11.668Z,14.88
2018-05-26T03:38:11.592Z,14.96
2018-05-26T03:39:11.532Z,14.88
2018-05-26T03:40:11.438Z,14.82
2018-05-26T03:41:11.365Z,14.96
2018-05-26T03:42:11.293Z,14.97
2018-05-26T03:43:11.245Z,15.03
2018-05-26T03:44:11.136Z,15.03
2018-05-26T03:45:11.057Z,14.99
2018-05-26T03:46:10.981Z,15.15
2018-05-26T03:47:10.903Z,15.09
2018-05-26T03:48:10.831Z,15.15
2018-05-26T03:49:10.753Z,15.06
2018-05-26T03:50:10.677Z,15.07
2018-05-26T03:51:10.610Z,15.17
2018-05-26T03:52:10.524Z,15.07
2018-05-26T03:53:10.446Z,15.17
2018-05-26T03:54:10.370Z,15.10
2018-05-26T03:55:10.295Z,15.11
2018-05-26T03:56:10.220Z,15.21
2018-05-26T03:57:10.143Z,15.19
2018-05-26T03:58:10.067Z,15.22
2018-05-26T03:59:09.992Z,15.17
2018-05-26T04:00:09.918Z,15.24
2018-05-26T04:01:09.839Z,15.25
2018-05-26T04:02:09.764Z,15.22
2018-05-26T04:03:09.691Z,15.28
2018-05-26T04:04:09.612Z,15.25
2018-05-26T04:05:09.539Z,15.36
2018-05-26T04:06:09.532Z,15.39
2018-05-26T04:07:09.380Z,15.28
2018-05-26T04:08:09.308Z,15.25
2018-05-26T04:09:09.230Z,15.33
2018-05-26T04:10:09.157Z,15.42
2018-05-26T04:11:09.101Z,15.43
2018-05-26T04:12:09.003Z,15.42
2018-05-26T04:13:08.934Z,15.40
2018-05-26T04:14:08.852Z,15.46
2018-05-26T04:15:08.774Z,15.40
2018-05-26T04:16:08.707Z,15.47
2018-05-26T04:17:08.623Z,15.44
2018-05-26T04:18:08.548Z,15.42
2018-05-26T04:19:08.470Z,15.46
2018-05-26T04:20:08.395Z,15.47
2018-05-26T04:21:08.318Z,15.51
2018-05-26T04:22:08.243Z,15.44
2018-05-26T04:23:08.165Z,15.44
2018-05-26T04:24:08.091Z,15.52
2018-05-26T04:25:08.023Z,15.46
2018-05-26T04:26:07.942Z,15.47
2018-05-26T04:27:07.864Z,15.47
2018-05-26T04:28:07.802Z,15.62
2018-05-26T04:29:07.714Z,15.64
2018-05-26T04:30:07.639Z,15.59
2018-05-26T04:31:07.559Z,15.67
2018-05-26T04:32:07.485Z,15.61
2018-05-26T04:33:07.410Z,15.64
2018-05-26T04:34:07.335Z,15.67
2018-05-26T04:35:07.259Z,15.72
2018-05-26T04:36:07.189Z,15.75
2018-05-26T04:37:07.106Z,15.72
2018-05-26T04:38:07.031Z,15.68
2018-05-26T04:39:06.954Z,15.76
2018-05-26T04:40:06.880Z,15.76
2018-05-26T04:41:06.806Z,15.75
2018-05-26T04:42:06.727Z,15.75
2018-05-26T04:43:06.653Z,15.79
2018-05-26T04:44:06.578Z,15.76
2018-05-26T04:45:06.505Z,15.77
2018-05-26T04:46:06.427Z,15.86
2018-05-26T04:47:06.356Z,15.77
2018-05-26T04:48:06.276Z,15.86
2018-05-26T04:49:06.200Z,15.91
2018-05-26T04:50:06.124Z,15.90
2018-05-26T04:51:06.051Z,15.86
2018-05-26T04:52:05.974Z,15.92
2018-05-26T04:53:05.897Z,15.86
2018-05-26T04:54:05.822Z,15.82
2018-05-26T04:55:05.748Z,15.83
2018-05-26T04:56:05.672Z,15.86
2018-05-26T04:57:05.595Z,15.83
2018-05-26T04:58:05.523Z,15.77
2018-05-26T04:59:05.445Z,15.83
2018-05-26T05:00:05.367Z,15.97
2018-05-26T05:01:05.296Z,15.90
2018-05-26T05:02:05.232Z,15.94
2018-05-26T05:03:05.140Z,15.92
2018-05-26T05:04:05.067Z,15.84
2018-05-26T05:05:04.992Z,15.84
2018-05-26T05:06:04.917Z,15.94
2018-05-26T05:07:04.844Z,15.84
2018-05-26T05:08:04.765Z,15.83
2018-05-26T05:09:04.689Z,15.91
2018-05-26T05:10:04.616Z,15.90
2018-05-26T05:11:04.543Z,16.00
2018-05-26T05:12:04.460Z,15.98
2018-05-26T05:13:04.385Z,15.95
2018-05-26T05:14:04.311Z,15.91
2018-05-26T05:15:04.235Z,15.91
2018-05-26T05:16:04.162Z,15.95
2018-05-26T05:17:04.084Z,16.01
2018-05-26T05:18:04.009Z,15.97
2018-05-26T05:19:03.938Z,16.04
2018-05-26T05:20:03.858Z,16.12
2018-05-26T05:21:03.784Z,16.09
2018-05-26T05:22:03.707Z,16.10
2018-05-26T05:23:03.631Z,16.08
2018-05-26T05:24:03.570Z,15.94
2018-05-26T05:25:03.486Z,15.94
2018-05-26T05:26:03.410Z,16.00
2018-05-26T05:27:03.330Z,15.98
2018-05-26T05:28:03.256Z,15.98
2018-05-26T05:29:03.180Z,15.95
2018-05-26T05:30:03.114Z,15.94
2018-05-26T05:31:03.030Z,15.91
2018-05-26T05:32:02.957Z,15.94
2018-05-26T05:33:02.883Z,15.90
2018-05-26T05:34:02.804Z,15.86
2018-05-26T05:35:02.731Z,15.98
2018-05-26T05:36:02.657Z,15.90
2018-05-26T05:37:02.577Z,15.94
2018-05-26T05:38:02.504Z,15.94
2018-05-26T05:39:02.440Z,16.02
2018-05-26T05:40:02.356Z,15.98
2018-05-26T05:41:02.281Z,16.08
2018-05-26T05:42:02.207Z,16.10
2018-05-26T05:43:02.126Z,16.16
2018-05-26T05:44:02.053Z,16.15
2018-05-26T05:45:01.981Z,16.13
2018-05-26T05:46:01.904Z,16.12
2018-05-26T05:47:01.828Z,16.17
2018-05-26T05:48:01.767Z,16.17
2018-05-26T05:49:01.675Z,16.28
2018-05-26T05:50:01.601Z,16.23
2018-05-26T05:51:01.526Z,16.31
2018-05-26T05:52:01.452Z,16.33
2018-05-26T05:53:01.375Z,16.42
2018-05-26T05:54:01.301Z,16.49
2018-05-26T05:55:01.223Z,16.54
2018-05-26T05:56:01.152Z,16.53
2018-05-26T05:57:01.074Z,16.53
2018-05-26T05:58:01.001Z,16.53
2018-05-26T05:59:00.926Z,16.66
2018-05-26T06:00:00.853Z,16.60
2018-05-26T06:01:00.779Z,16.74
2018-05-26T06:02:00.702Z,16.75
2018-05-26T06:03:00.710Z,16.84
2018-05-26T06:04:00.558Z,16.86
2018-05-26T06:05:00.500Z,16.93
2018-05-26T06:06:00.405Z,16.96
2018-05-26T06:07:00.338Z,17.04
2018-05-26T06:08:00.263Z,16.97
2018-05-26T06:09:00.178Z,17.11
2018-05-26T06:10:00.104Z,17.09
2018-05-26T06:11:00.034Z,17.09
2018-05-26T06:11:59.953Z,17.08
2018-05-26T06:12:59.878Z,17.11
2018-05-26T06:13:59.804Z,17.09
2018-05-26T06:14:59.770Z,17.09
2018-05-26T06:15:59.657Z,17.08
2018-05-26T06:16:59.580Z,17.19
2018-05-26T06:17:59.521Z,17.15
2018-05-26T06:18:59.435Z,17.14
2018-05-26T06:19:59.363Z,17.15
2018-05-26T06:20:59.285Z,17.12
2018-05-26T06:21:59.209Z,17.09
2018-05-26T06:22:59.143Z,17.15
2018-05-26T06:23:59.059Z,17.16
2018-05-26T06:24:59.013Z,17.23
2018-05-26T06:25:58.918Z,17.19
2018-05-26T06:26:58.841Z,17.30
2018-05-26T06:27:58.765Z,17.26
2018-05-26T06:28:58.693Z,17.36
2018-05-26T06:29:58.614Z,17.41
2018-05-26T06:30:58.676Z,17.39
2018-05-26T06:31:58.468Z,17.45
2018-05-26T06:32:58.392Z,17.38
2018-05-26T06:33:58.324Z,17.54
2018-05-26T06:34:58.244Z,17.52
2018-05-26T06:35:58.180Z,17.56
2018-05-26T06:36:58.094Z,17.54
2018-05-26T06:37:58.020Z,17.63
2018-05-26T06:38:57.946Z,17.67
2018-05-26T06:39:57.871Z,17.72
2018-05-26T06:40:57.801Z,17.64
2018-05-26T06:41:57.726Z,17.71
2018-05-26T06:42:57.660Z,17.72
2018-05-26T06:43:57.576Z,17.71
2018-05-26T06:44:57.506Z,17.70
2018-05-26T06:45:57.427Z,17.82
2018-05-26T06:46:57.352Z,17.83
2018-05-26T06:47:57.279Z,17.82
2018-05-26T06:48:57.206Z,17.90
2018-05-26T06:49:57.133Z,17.92
2018-05-26T06:50:57.075Z,18.00
2018-05-26T06:51:56.984Z,17.97
2018-05-26T06:52:56.912Z,17.97
2018-05-26T06:53:56.836Z,17.98
2018-05-26T06:54:56.760Z,18.00
2018-05-26T06:55:56.687Z,18.07
2018-05-26T06:56:56.615Z,18.13
2018-05-26T06:57:56.540Z,18.04
2018-05-26T06:58:56.464Z,18.07
2018-05-26T06:59:56.390Z,18.25
2018-05-26T07:00:56.318Z,18.10
2018-05-26T07:01:56.248Z,18.22
2018-05-26T07:02:56.170Z,18.19
2018-05-26T07:03:56.097Z,18.26
2018-05-26T07:04:56.021Z,18.26
2018-05-26T07:05:55.953Z,18.37
2018-05-26T07:06:55.877Z,18.29
2018-05-26T07:07:55.803Z,18.33
2018-05-26T07:08:55.730Z,18.40
2018-05-26T07:09:55.657Z,18.44
2018-05-26T07:10:55.592Z,18.55
2018-05-26T07:11:55.506Z,18.50
2018-05-26T07:12:55.432Z,18.58
2018-05-26T07:13:55.356Z,18.60
2018-05-26T07:14:55.302Z,18.66
2018-05-26T07:15:55.215Z,18.68
2018-05-26T07:16:55.135Z,18.80
2018-05-26T07:17:55.090Z,18.78
2018-05-26T07:18:54.988Z,18.78
2018-05-26T07:19:54.921Z,18.88
2018-05-26T07:20:54.844Z,18.83
2018-05-26T07:21:54.770Z,18.96
2018-05-26T07:22:54.702Z,18.90
2018-05-26T07:23:54.623Z,18.92
2018-05-26T07:24:54.556Z,19.02
2018-05-26T07:25:54.488Z,19.04
2018-05-26T07:26:54.405Z,18.98
2018-05-26T07:27:54.382Z,18.98
2018-05-26T07:28:54.260Z,19.04
2018-05-26T07:29:54.188Z,18.99
2018-05-26T07:30:54.137Z,19.07
2018-05-26T07:31:54.038Z,19.07
2018-05-26T07:32:53.963Z,19.04
2018-05-26T07:33:53.896Z,19.12
2018-05-26T07:34:53.819Z,19.19
2018-05-26T07:35:53.745Z,19.21
2018-05-26T07:36:53.722Z,19.15
2018-05-26T07:37:53.598Z,19.27
2018-05-26T07:38:53.524Z,19.29
2018-05-26T07:39:53.455Z,19.26
2018-05-26T07:40:53.378Z,19.31
2018-05-26T07:41:53.309Z,19.33
2018-05-26T07:42:53.229Z,19.41
2018-05-26T07:43:53.159Z,19.40
2018-05-26T07:44:53.085Z,19.40
2018-05-26T07:45:53.026Z,19.40
2018-05-26T07:46:52.944Z,19.56
2018-05-26T07:47:52.865Z,19.56
2018-05-26T07:48:52.813Z,19.52
2018-05-26T07:49:52.722Z,19.66
2018-05-26T07:50:52.647Z,19.59
2018-05-26T07:51:52.594Z,19.69
2018-05-26T07:52:52.504Z,19.73
2018-05-26T07:53:52.429Z,19.73
2018-05-26T07:54:52.367Z,19.63
2018-05-26T07:55:52.288Z,19.70
2018-05-26T07:56:52.209Z,19.66
2018-05-26T07:57:52.161Z,19.71
2018-05-26T07:58:52.063Z,19.82
2018-05-26T07:59:51.991Z,19.84
2018-05-26T08:00:51.917Z,19.71
2018-05-26T08:01:51.847Z,19.81
2018-05-26T08:02:51.775Z,19.84
2018-05-26T08:03:51.699Z,19.85
2018-05-26T08:04:51.633Z,19.82
2018-05-26T08:05:51.553Z,19.84
2018-05-26T08:06:51.480Z,19.85
2018-05-26T08:07:51.406Z,19.88
2018-05-26T08:08:51.334Z,19.99
2018-05-26T08:09:51.268Z,19.92
2018-05-26T08:10:51.223Z,19.89
2018-05-26T08:11:51.116Z,19.91
2018-05-26T08:12:51.043Z,19.89
2018-05-26T08:13:50.969Z,19.91
2018-05-26T08:14:50.908Z,19.92
2018-05-26T08:15:50.824Z,19.89
2018-05-26T08:16:50.751Z,20.00
2018-05-26T08:17:50.687Z,19.99
2018-05-26T08:18:50.607Z,20.00
2018-05-26T08:19:50.532Z,20.02
2018-05-26T08:20:50.463Z,20.06
2018-05-26T08:21:51.059Z,20.06
2018-05-26T08:22:50.313Z,20.04
2018-05-26T08:23:50.256Z,20.07
2018-05-26T08:24:50.170Z,20.06
2018-05-26T08:25:50.100Z,20.21
2018-05-26T08:26:50.031Z,20.14
2018-05-26T08:27:49.953Z,20.14
2018-05-26T08:28:49.882Z,20.14
2018-05-26T08:29:49.807Z,20.11
2018-05-26T08:30:49.836Z,20.24
2018-05-26T08:31:49.769Z,20.11
2018-05-26T08:32:49.590Z,20.22
2018-05-26T08:33:49.560Z,20.22
2018-05-26T08:34:49.447Z,20.16
2018-05-26T08:35:49.372Z,20.25
2018-05-26T08:36:49.318Z,20.22
2018-05-26T08:37:49.228Z,20.28
2018-05-26T08:38:49.153Z,20.32
2018-05-26T08:39:49.090Z,20.28
2018-05-26T08:40:49.023Z,20.36
2018-05-26T08:43:31.527Z,20.47
2018-05-26T08:44:31.415Z,20.48
2018-05-26T08:46:35.290Z,20.56
2018-05-26T08:47:35.160Z,20.65
2018-05-26T08:49:38.978Z,20.65
2018-05-26T08:50:38.902Z,20.72
2018-05-26T08:52:31.708Z,20.78
2018-05-26T08:53:31.596Z,20.75
2018-05-26T08:55:35.412Z,20.77
2018-05-26T08:56:35.391Z,20.80
2018-05-26T08:58:39.208Z,20.88
2018-05-26T08:59:39.090Z,20.81
2018-05-26T09:01:43.011Z,20.96
2018-05-26T09:02:42.835Z,20.95
2018-05-26T09:04:46.753Z,21.09
2018-05-26T09:05:46.680Z,21.18
2018-05-26T09:07:50.441Z,21.24
2018-05-26T09:08:50.329Z,21.27
2018-05-26T09:10:54.138Z,21.29
2018-05-26T09:11:54.063Z,21.27
2018-05-26T09:13:57.927Z,21.39
2018-05-26T09:14:57.855Z,21.37
2018-05-26T09:17:01.654Z,21.42
2018-05-26T09:18:01.560Z,21.43
2018-05-26T09:20:05.427Z,21.48
2018-05-26T09:21:05.323Z,21.51
2018-05-26T09:22:58.123Z,21.75
2018-05-26T09:23:58.008Z,21.66
2018-05-26T09:26:01.819Z,21.76
2018-05-26T09:27:01.740Z,21.75
2018-05-26T09:29:05.607Z,21.79
2018-05-26T09:30:05.497Z,21.73
2018-05-26T09:32:09.319Z,21.80
2018-05-26T09:33:09.236Z,21.80
2018-05-26T09:35:13.098Z,21.95
2018-05-26T09:36:12.977Z,22.02
2018-05-26T09:37:12.904Z,22.06
2018-05-26T09:38:12.837Z,22.11
2018-05-26T09:39:12.764Z,22.04
2018-05-26T09:40:12.720Z,22.14
2018-05-26T09:41:12.624Z,22.08
2018-05-26T09:42:12.548Z,22.15
2018-05-26T09:43:12.501Z,22.22
2018-05-26T09:44:12.408Z,22.28
2018-05-26T09:45:12.339Z,22.35
2018-05-26T09:46:12.265Z,22.35
2018-05-26T09:47:12.192Z,22.39
2018-05-26T09:48:12.144Z,22.51
2018-05-26T09:49:12.051Z,22.51
2018-05-26T09:50:11.979Z,22.47
2018-05-26T09:51:11.906Z,22.51
2018-05-26T09:52:11.846Z,22.51
2018-05-26T09:53:11.856Z,22.48
2018-05-26T09:54:11.694Z,22.48
2018-05-26T09:55:11.623Z,22.57
2018-05-26T09:56:11.552Z,22.62
2018-05-26T09:57:11.481Z,22.63
2018-05-26T09:58:11.415Z,22.65
2018-05-26T09:59:11.356Z,22.60
2018-05-26T10:00:11.269Z,22.68
2018-05-26T10:01:11.195Z,22.75
2018-05-26T10:02:11.131Z,22.83
2018-05-26T10:03:11.058Z,22.78
2018-05-26T10:04:10.989Z,22.81
2018-05-26T10:05:10.959Z,22.84
2018-05-26T10:06:10.845Z,22.94
2018-05-26T10:07:10.769Z,22.91
2018-05-26T10:08:10.698Z,23.00
2018-05-26T10:09:10.627Z,23.00
2018-05-26T10:10:10.558Z,22.98
2018-05-26T10:11:10.485Z,23.03
2018-05-26T10:12:10.470Z,23.15
2018-05-26T10:13:10.344Z,23.08
2018-05-26T10:14:10.280Z,23.10
2018-05-26T10:15:10.201Z,23.09
2018-05-26T10:16:10.136Z,23.15
2018-05-26T10:17:10.061Z,23.23
2018-05-26T10:18:10.004Z,23.21
2018-05-26T10:19:09.921Z,23.27
2018-05-26T10:20:09.849Z,23.41
2018-05-26T10:21:09.784Z,23.25
2018-05-26T10:22:09.722Z,23.36
2018-05-26T10:23:09.638Z,23.39
2018-05-26T10:24:09.569Z,23.37
2018-05-26T10:25:09.501Z,23.41
2018-05-26T10:26:09.427Z,23.41
2018-05-26T10:27:09.353Z,23.40
2018-05-26T10:28:09.302Z,23.41
2018-05-26T10:29:09.221Z,23.50
2018-05-26T10:30:09.145Z,23.62
2018-05-26T10:31:09.074Z,23.63
2018-05-26T10:32:09.009Z,23.69
2018-05-26T10:33:08.933Z,23.69
2018-05-26T10:34:08.870Z,23.73
2018-05-26T10:35:08.796Z,23.81
2018-05-26T10:36:08.725Z,23.92
2018-05-26T10:37:08.654Z,23.84
2018-05-26T10:38:08.603Z,23.93
2018-05-26T10:39:08.512Z,23.96
2018-05-26T10:40:08.443Z,24.03
2018-05-26T10:41:08.371Z,24.06
2018-05-26T10:42:08.304Z,24.17
2018-05-26T10:43:08.233Z,24.03
2018-05-26T10:44:08.160Z,24.14
2018-05-26T10:45:08.091Z,24.23
2018-05-26T10:46:08.022Z,24.20
2018-05-26T10:47:07.978Z,24.26
2018-05-26T10:48:07.885Z,24.30
2018-05-26T10:49:07.812Z,24.28
2018-05-26T10:50:07.744Z,24.32
2018-05-26T10:51:07.671Z,24.42
2018-05-26T10:52:07.609Z,24.39
2018-05-26T10:53:07.544Z,24.48
2018-05-26T10:54:07.467Z,24.51
2018-05-26T10:55:07.393Z,24.58
2018-05-26T10:56:07.323Z,24.54
2018-05-26T10:57:07.252Z,24.63
2018-05-26T10:58:07.187Z,24.73
2018-05-26T10:59:07.113Z,24.73
2018-05-26T11:00:07.047Z,24.76
2018-05-26T11:01:06.974Z,24.78
2018-05-26T11:02:06.904Z,24.84
2018-05-26T11:03:06.837Z,24.85
2018-05-26T11:04:06.823Z,25.01
2018-05-26T11:05:06.697Z,25.03
2018-05-26T11:06:06.635Z,24.98
2018-05-26T11:07:06.557Z,25.04
2018-05-26T11:08:06.505Z,25.01
2018-05-26T11:09:06.420Z,24.99
2018-05-26T11:10:06.351Z,25.06
2018-05-26T11:11:06.293Z,25.16
2018-05-26T11:12:06.232Z,25.17
2018-05-26T11:13:06.147Z,25.16
2018-05-26T11:14:06.074Z,25.26
2018-05-26T11:15:06.016Z,25.28
2018-05-26T11:16:05.936Z,25.38
2018-05-26T11:17:05.887Z,25.46
2018-05-26T11:18:05.798Z,25.51
2018-05-26T11:19:05.761Z,25.48
2018-05-26T11:20:05.659Z,25.54
2018-05-26T11:21:05.597Z,25.55
2018-05-26T11:22:05.521Z,25.68
2018-05-26T11:23:05.454Z,25.59
2018-05-26T11:24:05.674Z,25.73
2018-05-26T11:25:05.328Z,25.80
2018-05-26T11:26:05.556Z,25.77
2018-05-26T11:27:05.179Z,25.85
2018-05-26T11:28:05.110Z,25.81
2018-05-26T11:29:05.063Z,25.90
2018-05-26T11:30:04.969Z,25.93
2018-05-26T11:31:04.935Z,25.90
2018-05-26T11:32:04.841Z,25.90
2018-05-26T11:33:04.767Z,25.93
2018-05-26T11:34:04.696Z,26.00
2018-05-26T11:35:04.626Z,25.98
2018-05-26T11:36:04.581Z,26.16
2018-05-26T11:37:04.492Z,26.21
2018-05-26T11:38:04.423Z,26.16
2018-05-26T11:39:04.365Z,26.22
2018-05-26T11:40:04.288Z,26.26
2018-05-26T11:41:04.219Z,26.23
2018-05-26T11:42:04.150Z,26.44
2018-05-26T11:43:04.081Z,26.48
2018-05-26T11:44:04.016Z,26.47
2018-05-26T11:45:03.943Z,26.43
2018-05-26T11:46:03.877Z,26.45
2018-05-26T11:47:03.810Z,26.51
2018-05-26T11:48:03.737Z,26.58
2018-05-26T11:49:03.675Z,26.60
2018-05-26T11:50:03.603Z,26.71
2018-05-26T11:51:03.537Z,26.74
2018-05-26T11:52:03.471Z,26.74
2018-05-26T11:53:03.402Z,26.77
2018-05-26T11:54:03.330Z,26.71
2018-05-26T11:55:03.264Z,26.85
2018-05-26T11:56:03.196Z,26.83
2018-05-26T11:57:03.129Z,26.92
2018-05-26T11:58:03.059Z,26.90
2018-05-26T11:59:03.006Z,27.00
2018-05-26T12:00:02.925Z,27.07
2018-05-26T12:01:02.862Z,27.07
2018-05-26T12:02:02.826Z,27.10
2018-05-26T12:03:02.722Z,27.21
2018-05-26T12:04:02.654Z,27.21
2018-05-26T12:05:02.586Z,27.22
2018-05-26T12:06:02.524Z,27.40
2018-05-26T12:07:02.450Z,27.42
2018-05-26T12:08:02.385Z,27.45
2018-05-26T12:09:02.316Z,27.45
2018-05-26T12:10:02.249Z,27.47
2018-05-26T12:11:02.223Z,27.52
2018-05-26T12:12:02.115Z,27.60
2018-05-26T12:13:02.060Z,27.67
2018-05-26T12:14:01.977Z,27.58
2018-05-26T12:15:01.909Z,27.67
2018-05-26T12:16:01.846Z,27.77
2018-05-26T12:17:01.780Z,27.75
2018-05-26T12:18:01.710Z,27.80
2018-05-26T12:19:01.640Z,27.83
2018-05-26T12:20:01.593Z,27.73
2018-05-26T12:21:01.509Z,27.87
2018-05-26T12:22:01.440Z,27.96
2018-05-26T12:23:01.375Z,27.89
2018-05-26T12:24:01.316Z,27.96
2018-05-26T12:25:01.244Z,27.87
2018-05-26T12:26:01.189Z,28.08
2018-05-26T12:27:01.104Z,28.11
2018-05-26T12:28:01.037Z,28.15
2018-05-26T12:29:00.973Z,28.10
2018-05-26T12:30:00.904Z,28.23
2018-05-26T12:31:00.855Z,28.15
2018-05-26T12:32:00.772Z,28.27
2018-05-26T12:33:00.703Z,28.26
2018-05-26T12:34:00.697Z,28.22
2018-05-26T12:35:00.571Z,28.27
2018-05-26T12:36:00.505Z,28.32
2018-05-26T12:37:00.446Z,28.35
2018-05-26T12:38:00.385Z,28.41
2018-05-26T12:39:00.310Z,28.38
2018-05-26T12:40:00.291Z,28.37
2018-05-26T12:41:00.175Z,28.45
2018-05-26T12:42:00.104Z,28.48
2018-05-26T12:43:00.039Z,28.62
2018-05-26T12:43:59.978Z,28.63
2018-05-26T12:44:59.923Z,28.70
2018-05-26T12:45:59.844Z,28.76
2018-05-26T12:46:59.775Z,28.85
2018-05-26T12:47:59.710Z,28.72
2018-05-26T12:48:59.643Z,28.84
2018-05-26T12:49:59.595Z,28.89
2018-05-26T12:50:59.512Z,29.01
2018-05-26T12:51:59.449Z,29.02
2018-05-26T12:52:59.382Z,29.01
2018-05-26T12:53:59.320Z,29.08
2018-05-26T12:54:59.255Z,29.17
2018-05-26T12:55:59.190Z,29.27
2018-05-26T12:56:59.123Z,29.36
2018-05-26T12:57:59.062Z,29.41
2018-05-26T12:58:58.998Z,29.54
2018-05-26T12:59:58.937Z,29.59
2018-05-26T13:00:58.875Z,29.50
2018-05-26T13:01:58.814Z,29.42
2018-05-26T13:02:58.751Z,29.42
2018-05-26T13:03:58.692Z,29.27
2018-05-26T13:04:58.630Z,29.36
2018-05-26T13:05:58.587Z,29.49
2018-05-26T13:06:58.508Z,29.61
2018-05-26T13:07:58.454Z,29.71
2018-05-26T13:08:58.387Z,29.69
2018-05-26T13:09:58.341Z,29.61
2018-05-26T13:10:58.270Z,29.66